createdAt,value
2018-04-14T00:00:51.990Z,8.90
2018-04-14T00:03:21.257Z,8.60
2018-04-14T00:05:48.766Z,6.93
2018-04-14T00:08:17.108Z,7.70
2018-04-14T00:10:45.526Z,7.00
2018-04-14T00:13:13.039Z,8.13
2018-04-14T00:15:40.585Z,7.03
2018-04-14T00:18:08.130Z,10.47
2018-04-14T00:20:35.690Z,8.97
2018-04-14T00:23:03.198Z,10.33
2018-04-14T00:25:31.490Z,7.53
2018-04-14T00:27:59.714Z,9.57
2018-04-14T00:30:27.466Z,6.80
2018-04-14T00:32:54.975Z,8.90
2018-04-14T00:35:24.221Z,8.23
2018-04-14T00:37:51.723Z,7.90
2018-04-14T00:40:19.492Z,8.13
2018-04-14T00:42:47.213Z,11.40
2018-04-14T00:45:14.751Z,9.43
2018-04-14T00:47:42.266Z,7.70
2018-04-14T00:50:09.831Z,10.63
2018-04-14T00:52:37.957Z,8.88
2018-04-14T00:55:05.473Z,7.80
2018-04-14T00:57:32.991Z,10.53
2018-04-14T01:00:00.550Z,14.63
2018-04-14T01:02:28.078Z,7.60
2018-04-14T01:04:55.756Z,8.50
2018-04-14T01:07:23.316Z,12.55
2018-04-14T01:09:51.350Z,8.73
2018-04-14T01:12:19.665Z,7.23
2018-04-14T01:14:47.221Z,10.07
2018-04-14T01:17:14.736Z,7.03
2018-04-14T01:19:42.308Z,8.37
2018-04-14T01:22:11.501Z,9.10
2018-04-14T01:24:39.038Z,8.87
2018-04-14T01:27:06.579Z,9.43
2018-04-14T01:29:34.118Z,8.40
2018-04-14T01:32:01.651Z,8.32
2018-04-14T01:34:29.823Z,8.50
2018-04-14T01:37:00.382Z,8.52
2018-04-14T01:39:35.083Z,7.50
2018-04-14T01:42:02.622Z,8.47
2018-04-14T01:44:31.759Z,9.20
2018-04-14T01:46:59.300Z,7.32
2018-04-14T01:49:26.807Z,7.60
2018-04-14T01:51:54.361Z,6.77
2018-04-14T01:54:21.869Z,7.93
2018-04-14T01:56:50.291Z,6.63
2018-04-14T01:59:17.861Z,8.63
2018-04-14T02:01:45.371Z,7.07
2018-04-14T02:04:12.894Z,9.00
2018-04-14T02:06:40.409Z,6.53
2018-04-14T02:09:11.768Z,9.70
2018-04-14T02:11:39.395Z,6.95
2018-04-14T02:14:06.919Z,10.18
2018-04-14T02:16:34.474Z,7.23
2018-04-14T02:19:01.997Z,8.18
2018-04-14T02:21:29.584Z,6.95
2018-04-14T02:24:00.950Z,9.50
2018-04-14T02:26:28.977Z,8.10
2018-04-14T02:28:56.475Z,9.32
2018-04-14T02:31:24.034Z,10.03
2018-04-14T02:33:51.614Z,8.20
2018-04-14T02:36:19.189Z,9.20
2018-04-14T02:38:46.721Z,8.70
2018-04-14T02:41:14.308Z,10.10
2018-04-14T02:43:42.776Z,8.53
2018-04-14T02:46:10.318Z,7.00
2018-04-14T02:48:37.863Z,7.70
2018-04-14T02:51:05.678Z,8.80
2018-04-14T02:53:36.427Z,13.20
2018-04-14T02:56:04.264Z,9.85
2018-04-14T03:11:02.342Z,10.32
2018-04-14T03:13:29.804Z,7.80
2018-04-14T03:15:57.741Z,8.48
2018-04-14T03:18:25.220Z,7.78
2018-04-14T03:20:52.683Z,10.80
2018-04-14T03:23:20.166Z,9.70
2018-04-14T03:25:51.520Z,9.70
2018-04-14T03:28:18.990Z,8.20
2018-04-14T03:30:47.404Z,10.23
2018-04-14T03:33:15.651Z,8.65
2018-04-14T03:35:43.108Z,10.10
2018-04-14T03:38:10.570Z,10.73
2018-04-14T03:40:42.633Z,8.83
2018-04-14T03:43:10.124Z,8.90
2018-04-14T03:45:37.600Z,8.60
2018-04-14T03:48:05.685Z,11.10
2018-04-14T03:50:33.178Z,11.63
2018-04-14T03:53:00.632Z,10.68
2018-04-14T03:55:28.138Z,13.43
2018-04-14T03:57:57.303Z,12.90
2018-04-14T04:00:24.757Z,10.93
2018-04-14T04:02:52.248Z,12.45
2018-04-14T04:05:19.691Z,10.50
2018-04-14T04:07:47.178Z,10.47
2018-04-14T04:10:19.597Z,9.82
2018-04-14T04:12:47.055Z,10.10
2018-04-14T04:15:16.242Z,17.73
2018-04-14T04:17:43.716Z,13.67
2018-04-14T04:20:22.859Z,12.87
2018-04-14T04:23:02.192Z,11.43
2018-04-14T04:25:39.572Z,12.40
2018-04-14T04:28:11.545Z,12.17
2018-04-14T04:30:38.997Z,13.43
2018-04-14T04:33:07.241Z,12.23
2018-04-14T04:35:34.708Z,11.57
2018-04-14T04:38:02.181Z,15.47
2018-04-14T04:40:35.627Z,13.43
2018-04-14T04:43:03.093Z,14.17
2018-04-14T04:45:31.798Z,12.48
2018-04-14T04:47:59.269Z,15.03
2018-04-14T04:50:26.734Z,10.10
2018-04-14T04:52:54.196Z,12.07
2018-04-14T04:55:30.044Z,14.63
2018-04-14T04:57:58.326Z,10.13
2018-04-14T05:00:26.595Z,10.04
2018-04-14T05:02:54.859Z,10.77
2018-04-14T05:05:22.339Z,10.13
2018-04-14T05:07:49.783Z,9.77
2018-04-14T05:10:17.530Z,9.40
2018-04-14T05:12:44.980Z,10.10
2018-04-14T05:15:13.965Z,10.63
2018-04-14T05:17:41.445Z,9.83
2018-04-14T05:20:08.906Z,8.67
2018-04-14T05:22:36.737Z,8.57
2018-04-14T05:25:05.104Z,9.93
2018-04-14T05:27:36.508Z,9.50
2018-04-14T05:30:03.960Z,10.25
2018-04-14T05:32:31.414Z,9.70
2018-04-14T05:34:59.116Z,11.20
2018-04-14T05:37:26.660Z,13.38
2018-04-14T05:39:55.582Z,10.27
2018-04-14T05:42:23.066Z,10.95
2018-04-14T05:44:50.544Z,10.57
2018-04-14T05:47:19.750Z,11.98
2018-04-14T05:49:47.255Z,12.10
2018-04-14T05:52:14.732Z,13.70
2018-04-14T05:54:42.220Z,12.00
2018-04-14T05:57:13.863Z,12.53
2018-04-14T05:59:41.341Z,15.20
2018-04-14T06:02:09.092Z,12.10
2018-04-14T06:04:36.555Z,14.80
2018-04-14T06:07:04.027Z,18.73
2018-04-14T06:09:31.512Z,17.10
2018-04-14T06:12:03.535Z,18.63
2018-04-14T06:14:30.991Z,16.97
2018-04-14T06:16:58.713Z,20.47
2018-04-14T06:19:26.282Z,17.33
2018-04-14T06:21:53.748Z,20.12
2018-04-14T06:24:21.839Z,18.80
2018-04-14T06:26:52.898Z,19.00
2018-04-14T06:29:20.384Z,24.47
2018-04-14T06:31:47.840Z,24.08
2018-04-14T06:34:15.325Z,22.30
2018-04-14T06:36:42.784Z,26.03
2018-04-14T06:39:10.308Z,23.77
2018-04-14T06:41:37.778Z,19.90
2018-04-14T06:44:05.241Z,20.98
2018-04-14T06:46:32.707Z,24.00
2018-04-14T06:49:00.164Z,21.70
2018-04-14T06:51:27.652Z,23.35
2018-04-14T06:53:56.083Z,23.62
2018-04-14T06:56:23.601Z,26.17
2018-04-14T06:58:58.928Z,28.43
2018-04-14T07:01:27.471Z,29.05
2018-04-14T07:03:55.105Z,25.47
2018-04-14T07:06:22.612Z,23.47
2018-04-14T07:08:50.075Z,63.70
2018-04-14T07:11:17.522Z,30.15
2018-04-14T07:13:45.019Z,28.03
2018-04-14T07:16:12.518Z,25.13
2018-04-14T07:18:41.103Z,23.04
2018-04-14T07:21:08.578Z,29.27
2018-04-14T07:23:36.052Z,30.37
2018-04-14T07:26:03.504Z,23.87
2018-04-14T07:28:33.844Z,27.57
2018-04-14T07:31:01.347Z,25.37
2018-04-14T07:33:28.816Z,25.73
2018-04-14T07:35:56.329Z,23.75
2018-04-14T07:38:25.518Z,26.05
2018-04-14T07:40:52.976Z,26.03
2018-04-14T07:43:24.200Z,28.30
2018-04-14T07:45:51.777Z,25.27
2018-04-14T07:48:19.752Z,23.38
2018-04-14T07:50:48.009Z,24.63
2018-04-14T07:53:15.540Z,26.13
2018-04-14T07:55:43.049Z,24.80
2018-04-14T07:58:10.505Z,34.97
2018-04-14T08:00:38.721Z,26.87
2018-04-14T08:03:07.129Z,23.02
2018-04-14T08:05:34.611Z,22.35
2018-04-14T08:08:02.112Z,20.07
2018-04-14T08:10:29.575Z,22.25
2018-04-14T08:12:57.079Z,22.73
2018-04-14T08:15:24.546Z,23.80
2018-04-14T08:17:52.815Z,23.08
2018-04-14T08:20:20.323Z,23.17
2018-04-14T08:22:47.783Z,20.83
2018-04-14T08:25:15.245Z,24.05
2018-04-14T08:27:42.741Z,19.75
2018-04-14T08:30:10.492Z,26.17
2018-04-14T08:32:37.971Z,18.73
2018-04-14T08:35:06.608Z,19.67
2018-04-14T08:37:34.942Z,19.60
2018-04-14T08:40:03.190Z,21.57
2018-04-14T08:42:31.336Z,22.50
2018-04-14T08:44:58.793Z,17.93
2018-04-14T08:47:26.857Z,17.12
2018-04-14T08:49:54.343Z,17.40
2018-04-14T08:52:21.811Z,16.65
2018-04-14T08:54:49.316Z,18.37
2018-04-14T08:57:16.786Z,13.90
2018-04-14T08:59:47.873Z,17.02
2018-04-14T09:02:15.348Z,15.07
2018-04-14T09:04:44.004Z,22.50
2018-04-14T09:07:11.488Z,16.80
2018-04-14T09:09:40.657Z,17.07
2018-04-14T09:12:08.143Z,21.60
2018-04-14T09:14:39.096Z,19.33
2018-04-14T09:17:06.576Z,17.63
2018-04-14T09:19:34.913Z,16.90
2018-04-14T09:22:02.360Z,17.67
2018-04-14T09:24:29.820Z,15.07
2018-04-14T09:26:57.346Z,13.98
2018-04-14T09:29:24.930Z,17.62
2018-04-14T09:31:56.753Z,15.85
2018-04-14T09:34:24.344Z,14.50
2018-04-14T09:36:51.804Z,12.73
2018-04-14T09:39:19.292Z,11.60
2018-04-14T09:41:46.788Z,11.10
2018-04-14T09:44:14.268Z,7.70
2018-04-14T09:46:41.743Z,7.10
2018-04-14T09:49:09.206Z,9.53
2018-04-14T09:51:36.659Z,8.80
2018-04-14T09:54:04.148Z,8.95
2018-04-14T09:56:32.321Z,12.27
2018-04-14T09:58:59.813Z,8.30
2018-04-14T10:01:27.279Z,7.10
2018-04-14T10:03:54.756Z,8.00
2018-04-14T10:06:22.221Z,7.32
2018-04-14T10:08:49.728Z,6.33
2018-04-14T10:11:17.342Z,6.80
2018-04-14T10:13:44.826Z,10.03
2018-04-14T10:16:16.352Z,8.93
2018-04-14T10:18:43.790Z,6.43
2018-04-14T10:21:11.240Z,6.70
2018-04-14T10:23:38.712Z,5.40
2018-04-14T10:26:06.191Z,6.90
2018-04-14T10:28:33.648Z,5.23
2018-04-14T10:31:01.881Z,5.82
2018-04-14T10:33:29.720Z,4.97
2018-04-14T10:35:57.201Z,10.93
2018-04-14T10:38:25.782Z,6.45
2018-04-14T10:40:53.230Z,6.93
2018-04-14T10:43:20.939Z,2.87
2018-04-14T10:45:49.356Z,5.53
2018-04-14T10:48:16.945Z,3.00
2018-04-14T10:50:44.418Z,3.65
2018-04-14T10:53:11.896Z,3.45
2018-04-14T10:55:39.372Z,3.57
2018-04-14T10:58:06.819Z,4.72
2018-04-14T11:00:35.093Z,5.70
2018-04-14T11:03:04.242Z,6.55
2018-04-14T11:05:31.735Z,3.73
2018-04-14T11:08:00.028Z,4.90
2018-04-14T11:10:28.664Z,4.90
2018-04-14T11:12:56.149Z,3.37
2018-04-14T11:15:24.389Z,3.73
2018-04-14T11:17:53.540Z,5.15
2018-04-14T11:20:21.029Z,6.23
2018-04-14T11:22:48.522Z,4.32
2018-04-14T11:25:16.020Z,2.40
2018-04-14T11:27:43.504Z,2.35
2018-04-14T11:30:10.965Z,3.90
2018-04-14T11:32:48.716Z,2.40
2018-04-14T11:35:16.939Z,3.17
2018-04-14T11:37:44.434Z,2.97
2018-04-14T11:40:13.910Z,5.93
2018-04-14T11:42:41.411Z,1.47
2018-04-14T11:45:08.852Z,2.57
2018-04-14T11:47:40.195Z,4.00
2018-04-14T11:50:07.969Z,2.08
2018-04-14T11:52:35.448Z,3.62
2018-04-14T11:55:02.961Z,4.15
2018-04-14T11:57:30.589Z,8.20
2018-04-14T11:59:58.060Z,6.93
2018-04-14T12:02:25.543Z,1.70
2018-04-14T12:04:52.980Z,1.77
2018-04-14T12:07:21.353Z,2.03
2018-04-14T12:09:48.920Z,1.80
2018-04-14T12:12:16.343Z,2.07
2018-04-14T12:14:44.593Z,2.97
2018-04-14T12:17:12.053Z,1.47
2018-04-14T12:19:41.759Z,3.00
2018-04-14T12:22:09.251Z,1.10
2018-04-14T12:24:37.460Z,2.20
2018-04-14T12:27:05.380Z,6.35
2018-04-14T12:29:32.852Z,1.52
2018-04-14T12:32:00.348Z,1.97
2018-04-14T12:34:27.804Z,2.55
2018-04-14T12:36:55.293Z,1.70
2018-04-14T12:39:22.749Z,3.20
2018-04-14T12:41:50.246Z,1.67
2018-04-14T12:44:17.691Z,2.25
2018-04-14T12:46:45.912Z,2.58
2018-04-14T12:49:17.605Z,1.02
2018-04-14T12:51:45.079Z,3.07
2018-04-14T12:54:12.555Z,3.17
2018-04-14T12:56:40.108Z,4.87
2018-04-14T12:59:07.556Z,2.20
2018-04-14T13:01:35.212Z,3.00
2018-04-14T13:04:06.937Z,2.08
2018-04-14T13:06:35.915Z,1.60
2018-04-14T13:09:03.665Z,2.00
2018-04-14T13:11:31.874Z,1.23
2018-04-14T13:13:59.359Z,1.70
2018-04-14T13:16:26.818Z,1.20
2018-04-14T13:18:57.317Z,3.50
2018-04-14T13:21:24.785Z,1.93
2018-04-14T13:23:53.140Z,2.70
2018-04-14T13:26:20.625Z,1.30
2018-04-14T13:28:48.133Z,2.08
2018-04-14T13:31:15.605Z,3.05
2018-04-14T13:33:43.086Z,1.50
2018-04-14T13:36:10.532Z,1.50
2018-04-14T13:38:38.008Z,1.10
2018-04-14T13:41:05.460Z,5.23
2018-04-14T13:43:32.922Z,2.33
2018-04-14T13:46:01.165Z,2.73
2018-04-14T13:48:28.617Z,2.53
2018-04-14T13:50:59.837Z,2.13
2018-04-14T13:53:28.396Z,1.42
2018-04-14T13:55:56.542Z,2.25
2018-04-14T13:58:24.006Z,2.53
2018-04-14T14:00:51.477Z,2.03
2018-04-14T14:03:18.935Z,1.50
2018-04-14T14:05:47.201Z,1.50
2018-04-14T14:08:16.261Z,7.25
2018-04-14T14:10:44.062Z,2.20
2018-04-14T14:13:11.500Z,1.75
2018-04-14T14:15:40.063Z,3.03
2018-04-14T14:18:07.565Z,2.28
2018-04-14T14:20:38.860Z,1.80
2018-04-14T14:23:06.324Z,1.23
2018-04-14T14:25:33.844Z,3.10
2018-04-14T14:28:02.095Z,1.73
2018-04-14T14:30:29.989Z,4.22
2018-04-14T14:32:57.464Z,2.70
2018-04-14T14:35:29.181Z,1.40
2018-04-14T14:37:56.635Z,1.33
2018-04-14T14:40:24.672Z,3.10
2018-04-14T14:42:52.147Z,1.80
2018-04-14T14:45:19.636Z,1.67
2018-04-14T14:47:47.142Z,2.05
2018-04-14T14:50:20.130Z,1.63
2018-04-14T14:52:47.608Z,2.50
2018-04-14T14:55:15.089Z,2.50
2018-04-14T14:57:44.592Z,2.57
2018-04-14T15:00:12.340Z,1.63
2018-04-14T15:02:39.804Z,3.03
2018-04-14T15:05:07.263Z,2.17
2018-04-14T15:07:34.740Z,1.80
2018-04-14T15:10:02.248Z,1.10
2018-04-14T15:12:29.971Z,2.17
2018-04-14T15:14:58.106Z,1.48
2018-04-14T15:17:26.142Z,2.27
2018-04-14T15:19:53.642Z,3.23
2018-04-14T15:22:21.125Z,1.00
2018-04-14T15:24:49.388Z,2.87
2018-04-14T15:27:17.744Z,2.10
2018-04-14T15:29:45.196Z,5.43
2018-04-14T15:32:13.276Z,3.24
2018-04-14T15:34:40.766Z,2.25
2018-04-14T15:37:08.987Z,2.00
2018-04-14T15:39:36.468Z,2.80
2018-04-14T15:42:03.952Z,1.60
2018-04-14T15:44:31.426Z,1.70
2018-04-14T15:46:58.933Z,2.00
2018-04-14T15:49:26.399Z,3.55
2018-04-14T15:51:53.859Z,2.10
2018-04-14T15:54:21.341Z,1.57
2018-04-14T15:56:48.796Z,1.90
2018-04-14T15:59:16.303Z,2.53
2018-04-14T16:01:44.293Z,2.83
2018-04-14T16:04:11.772Z,1.70
2018-04-14T16:06:43.015Z,4.40
2018-04-14T16:09:11.254Z,2.27
2018-04-14T16:11:39.327Z,1.75
2018-04-14T16:14:06.806Z,1.80
2018-04-14T16:16:34.272Z,1.70
2018-04-14T16:19:01.760Z,2.33
2018-04-14T16:21:29.300Z,1.27
2018-04-14T16:23:56.783Z,1.97
2018-04-14T16:26:24.239Z,1.60
2018-04-14T16:28:51.725Z,1.55
2018-04-14T16:31:19.259Z,1.90
2018-04-14T16:33:46.701Z,2.00
2018-04-14T16:36:14.158Z,3.23
2018-04-14T16:38:42.367Z,7.20
2018-04-14T16:41:09.821Z,2.00
2018-04-14T16:43:37.363Z,2.20
2018-04-14T16:46:04.840Z,2.58
2018-04-14T16:48:32.321Z,1.87
2018-04-14T16:50:59.837Z,3.07
2018-04-14T16:53:27.595Z,2.37
2018-04-14T16:55:56.399Z,2.12
2018-04-14T16:58:23.889Z,1.70
2018-04-14T17:00:51.346Z,3.50
2018-04-14T17:03:18.907Z,1.60
2018-04-14T17:05:46.359Z,1.92
2018-04-14T17:08:17.326Z,2.87
2018-04-14T17:10:45.093Z,2.10
2018-04-14T17:13:12.544Z,2.47
2018-04-14T17:15:40.048Z,7.60
2018-04-14T17:18:07.973Z,2.77
2018-04-14T17:20:36.237Z,3.13
2018-04-14T17:23:04.897Z,1.80
2018-04-14T17:25:32.401Z,1.90
2018-04-14T17:27:59.854Z,3.60
2018-04-14T17:30:28.984Z,2.27
2018-04-14T17:32:56.478Z,4.57
2018-04-14T17:35:24.987Z,1.27
2018-04-14T17:37:52.633Z,2.60
2018-04-14T17:40:20.092Z,7.28
2018-04-14T17:42:48.191Z,2.22
2018-04-14T17:45:15.633Z,3.12
2018-04-14T17:47:43.865Z,3.80
2018-04-14T17:50:11.377Z,5.03
2018-04-14T17:52:38.822Z,5.47
2018-04-14T17:55:11.685Z,3.13
2018-04-14T17:57:39.149Z,7.10
2018-04-14T18:00:06.612Z,8.03
2018-04-14T18:02:34.138Z,5.97
2018-04-14T18:05:01.597Z,6.10
2018-04-14T18:07:29.048Z,6.03
2018-04-14T18:09:59.616Z,5.07
2018-04-14T18:12:27.905Z,6.85
2018-04-14T18:14:55.333Z,6.23
2018-04-14T18:17:23.766Z,6.33
2018-04-14T18:19:51.484Z,3.63
2018-04-14T18:22:18.928Z,3.57
2018-04-14T18:24:51.543Z,4.30
2018-04-14T18:27:19.032Z,5.40
2018-04-14T18:29:47.852Z,5.50
2018-04-14T18:32:15.309Z,9.40
2018-04-14T18:34:42.809Z,5.03
2018-04-14T18:37:10.328Z,4.10
2018-04-14T18:39:44.806Z,3.63
2018-04-14T18:42:12.300Z,6.35
2018-04-14T18:44:39.777Z,6.50
2018-04-14T18:47:07.285Z,5.20
2018-04-14T18:49:34.747Z,6.05
2018-04-14T18:52:02.253Z,4.75
2018-04-14T18:54:34.742Z,3.83
2018-04-14T18:57:02.264Z,6.00
2018-04-14T18:59:29.893Z,14.20
2018-04-14T19:01:57.500Z,6.33
2018-04-14T19:04:26.655Z,4.95
2018-04-14T19:06:54.116Z,6.33
2018-04-14T19:09:25.002Z,7.10
2018-04-14T19:11:52.509Z,5.93
2018-04-14T19:14:19.964Z,5.90
2018-04-14T19:16:47.481Z,6.60
2018-04-14T19:19:15.344Z,3.23
2018-04-14T19:21:42.868Z,5.37
2018-04-14T19:24:11.898Z,4.00
2018-04-14T19:26:39.376Z,8.27
2018-04-14T19:29:06.854Z,4.03
2018-04-14T19:31:36.033Z,2.80
2018-04-14T19:34:04.263Z,4.23
2018-04-14T19:36:31.757Z,3.75
2018-04-14T19:38:59.261Z,3.60
2018-04-14T19:41:26.803Z,4.10
2018-04-14T19:43:55.160Z,4.93
2018-04-14T19:46:22.656Z,5.00
2018-04-14T19:48:50.109Z,6.10
2018-04-14T19:51:17.566Z,6.80
2018-04-14T19:53:45.040Z,4.23
2018-04-14T19:56:12.535Z,5.63
2018-04-14T19:58:40.026Z,5.82
2018-04-14T20:01:09.071Z,6.40
2018-04-14T20:03:36.583Z,5.22
2018-04-14T20:06:04.056Z,9.77
2018-04-14T20:08:31.548Z,5.90
2018-04-14T20:11:03.725Z,9.30
2018-04-14T20:13:31.288Z,6.63
2018-04-14T20:15:59.526Z,8.10
2018-04-14T20:18:27.927Z,6.68
2018-04-14T20:20:55.384Z,5.35
2018-04-14T20:23:22.993Z,6.97
2018-04-14T20:25:50.495Z,7.73
2018-04-14T20:28:21.132Z,8.13
2018-04-14T20:30:48.602Z,10.85
2018-04-14T20:33:16.073Z,10.00
2018-04-14T20:35:43.563Z,8.70
2018-04-14T20:38:11.863Z,7.02
2018-04-14T20:40:40.121Z,8.80
2018-04-14T20:43:07.582Z,12.87
2018-04-14T20:45:35.063Z,8.50
2018-04-14T20:48:03.352Z,12.43
2018-04-14T20:50:31.345Z,12.32
2018-04-14T20:52:59.608Z,10.70
2018-04-14T20:55:27.851Z,9.63
2018-04-14T20:57:55.796Z,10.10
2018-04-14T21:00:23.315Z,8.63
2018-04-14T21:02:50.780Z,10.23
2018-04-14T21:05:19.005Z,10.60
2018-04-14T21:07:46.506Z,9.17
2018-04-14T21:10:15.720Z,9.40
2018-04-14T21:12:43.535Z,7.60
2018-04-14T21:15:11.117Z,11.10
2018-04-14T21:17:38.557Z,8.73
2018-04-14T21:20:06.877Z,11.43
2018-04-14T21:22:34.624Z,10.50
2018-04-14T21:25:02.101Z,10.90
2018-04-14T21:27:29.764Z,9.17
2018-04-14T21:29:57.250Z,8.30
2018-04-14T21:32:24.794Z,8.70
2018-04-14T21:34:52.422Z,14.15
2018-04-14T21:37:19.903Z,8.90
2018-04-14T21:39:47.496Z,8.02
2018-04-14T21:42:15.037Z,8.40
2018-04-14T21:44:43.177Z,13.15
2018-04-14T21:47:12.442Z,10.67
2018-04-14T21:49:39.992Z,10.37
2018-04-14T21:52:07.865Z,12.00
2018-04-14T21:54:35.924Z,11.53
2018-04-14T21:57:03.447Z,12.30
2018-04-14T21:59:31.240Z,7.93
2018-04-14T22:01:58.737Z,11.73
2018-04-14T22:04:27.047Z,11.02
2018-04-14T22:06:54.692Z,11.93
2018-04-14T22:09:23.321Z,12.77
2018-04-14T22:11:52.346Z,10.12
2018-04-14T22:14:33.798Z,10.23
2018-04-14T22:17:01.290Z,11.47
2018-04-14T22:19:29.214Z,8.47
2018-04-14T22:21:56.883Z,8.43
2018-04-14T22:24:24.458Z,11.10
2018-04-14T22:26:52.776Z,10.60
2018-04-14T22:29:20.328Z,9.43
2018-04-14T22:31:47.808Z,9.50
2018-04-14T22:34:16.045Z,14.57
2018-04-14T22:36:43.501Z,10.48
2018-04-14T22:39:10.986Z,16.33
2018-04-14T22:41:38.433Z,11.03
2018-04-14T22:44:06.652Z,9.15
2018-04-14T22:46:34.113Z,11.50
2018-04-14T22:49:01.588Z,10.15
2018-04-14T22:51:29.046Z,8.85
2018-04-14T22:53:56.957Z,7.37
2018-04-14T22:56:26.092Z,14.80
2018-04-14T22:58:53.573Z,8.32
2018-04-14T23:01:21.028Z,13.13
2018-04-14T23:03:48.481Z,8.57
2018-04-14T23:06:15.969Z,12.10
2018-04-14T23:08:43.423Z,11.67
2018-04-14T23:11:10.941Z,10.63
2018-04-14T23:13:39.174Z,8.80
2018-04-14T23:16:07.396Z,10.98
2018-04-14T23:18:35.295Z,14.18
2018-04-14T23:21:02.766Z,9.27
2018-04-14T23:23:30.979Z,13.63
2018-04-14T23:25:58.640Z,8.90
2018-04-14T23:28:26.114Z,8.67
2018-04-14T23:30:53.580Z,12.95
2018-04-14T23:33:21.032Z,8.85
2018-04-14T23:35:48.523Z,9.63
2018-04-14T23:38:15.975Z,12.93
2018-04-14T23:40:43.480Z,8.90
2018-04-14T23:43:10.924Z,11.53
2018-04-14T23:45:38.448Z,16.33
2018-04-14T23:48:06.700Z,10.75
2018-04-14T23:50:34.132Z,9.68
2018-04-14T23:53:01.604Z,9.60
2018-04-14T23:55:29.863Z,14.40
2018-04-14T23:57:57.408Z,13.93
